sensor_id;sensor_type;location;lat;lon;timestamp;pressure;altitude;pressure_sealevel;temperature;humidity
5284;BME280;15377;48.540;9.268;2024-01-11T00:02:11;98362.97;;;-6.65;100.00
5284;BME280;15377;48.540;9.268;2024-01-11T00:04:36;98365.44;;;-6.72;100.00
5284;BME280;15377;48.540;9.268;2024-01-11T00:07:02;98365.31;;;-6.75;100.00
5284;BME280;15377;48.540;9.268;2024-01-11T00:09:27;98354.41;;;-6.82;100.00
5284;BME280;15377;48.540;9.268;2024-01-11T00:11:53;98362.06;;;-6.81;100.00
5284;BME280;15377;48.540;9.268;2024-01-11T00:14:18;98357.16;;;-6.67;100.00
5284;BME280;15377;48.540;9.268;2024-01-11T00:16:43;98353.78;;;-6.52;100.00
5284;BME280;15377;48.540;9.268;2024-01-11T00:19:09;98376.59;;;-6.30;100.00
5284;BME280;15377;48.540;9.268;2024-01-11T00:21:34;98358.22;;;-6.32;100.00
5284;BME280;15377;48.540;9.268;2024-01-11T00:24:00;98375.34;;;-6.09;100.00
5284;BME280;15377;48.540;9.268;2024-01-11T00:26:25;98355.06;;;-6.22;100.00
5284;BME280;15377;48.540;9.268;2024-01-11T00:28:50;98356.84;;;-6.26;100.00
5284;BME280;15377;48.540;9.268;2024-01-11T00:31:16;98365.13;;;-6.31;100.00
5284;BME280;15377;48.540;9.268;2024-01-11T00:33:41;98356.41;;;-6.28;100.00
5284;BME280;15377;48.540;9.268;2024-01-11T00:36:06;98364.03;;;-6.42;100.00
5284;BME280;15377;48.540;9.268;2024-01-11T00:38:32;98368.28;;;-6.41;100.00
5284;BME280;15377;48.540;9.268;2024-01-11T00:40:57;98369.03;;;-6.28;100.00
5284;BME280;15377;48.540;9.268;2024-01-11T00:43:23;98365.06;;;-6.19;100.00
5284;BME280;15377;48.540;9.268;2024-01-11T00:45:48;98376.81;;;-6.23;100.00
5284;BME280;15377;48.540;9.268;2024-01-11T00:48:13;98361.81;;;-6.40;100.00
5284;BME280;15377;48.540;9.268;2024-01-11T00:50:39;98365.28;;;-6.51;100.00
5284;BME280;15377;48.540;9.268;2024-01-11T00:53:04;98357.03;;;-6.58;100.00
5284;BME280;15377;48.540;9.268;2024-01-11T00:55:29;98372.34;;;-6.71;100.00
5284;BME280;15377;48.540;9.268;2024-01-11T00:57:55;98370.56;;;-6.79;100.00
5284;BME280;15377;48.540;9.268;2024-01-11T01:00:20;98378.34;;;-6.74;100.00
5284;BME280;15377;48.540;9.268;2024-01-11T01:02:45;98377.91;;;-6.76;100.00
5284;BME280;15377;48.540;9.268;2024-01-11T01:05:11;98377.91;;;-6.64;100.00
5284;BME280;15377;48.540;9.268;2024-01-11T01:07:37;98361.16;;;-6.61;100.00
5284;BME280;15377;48.540;9.268;2024-01-11T01:10:02;98387.78;;;-6.40;100.00
5284;BME280;15377;48.540;9.268;2024-01-11T01:12:28;98359.72;;;-6.58;100.00
5284;BME280;15377;48.540;9.268;2024-01-11T01:14:54;98381.69;;;-6.65;100.00
5284;BME280;15377;48.540;9.268;2024-01-11T01:17:19;98387.50;;;-6.75;100.00
5284;BME280;15377;48.540;9.268;2024-01-11T01:19:44;98374.78;;;-6.90;100.00
5284;BME280;15377;48.540;9.268;2024-01-11T01:22:10;98372.56;;;-6.76;100.00
5284;BME280;15377;48.540;9.268;2024-01-11T01:24:35;98376.91;;;-6.59;100.00
5284;BME280;15377;48.540;9.268;2024-01-11T01:27:01;98394.59;;;-6.43;100.00
5284;BME280;15377;48.540;9.268;2024-01-11T01:29:26;98383.22;;;-6.40;100.00
5284;BME280;15377;48.540;9.268;2024-01-11T01:31:52;98380.78;;;-6.45;100.00
5284;BME280;15377;48.540;9.268;2024-01-11T01:34:17;98400.53;;;-6.49;100.00
5284;BME280;15377;48.540;9.268;2024-01-11T01:36:43;98391.41;;;-6.72;100.00
5284;BME280;15377;48.540;9.268;2024-01-11T01:39:08;98400.88;;;-6.87;100.00
5284;BME280;15377;48.540;9.268;2024-01-11T01:41:33;98379.59;;;-6.83;100.00
5284;BME280;15377;48.540;9.268;2024-01-11T01:43:59;98383.16;;;-6.67;100.00
5284;BME280;15377;48.540;9.268;2024-01-11T01:46:24;98395.88;;;-6.76;100.00
5284;BME280;15377;48.540;9.268;2024-01-11T01:48:55;98372.00;;;-7.05;100.00
5284;BME280;15377;48.540;9.268;2024-01-11T01:51:22;98393.75;;;-6.94;100.00
5284;BME280;15377;48.540;9.268;2024-01-11T01:53:48;98377.56;;;-7.10;100.00
5284;BME280;15377;48.540;9.268;2024-01-11T01:56:15;98396.97;;;-7.01;100.00
5284;BME280;15377;48.540;9.268;2024-01-11T01:58:42;98378.31;;;-7.21;100.00
5284;BME280;15377;48.540;9.268;2024-01-11T02:01:08;98371.44;;;-7.22;100.00
5284;BME280;15377;48.540;9.268;2024-01-11T02:03:35;98390.81;;;-7.13;100.00
5284;BME280;15377;48.540;9.268;2024-01-11T02:06:02;98390.81;;;-7.13;100.00
5284;BME280;15377;48.540;9.268;2024-01-11T02:08:29;98382.78;;;-7.25;100.00
5284;BME280;15377;48.540;9.268;2024-01-11T02:10:56;98401.94;;;-7.23;100.00
5284;BME280;15377;48.540;9.268;2024-01-11T02:13:21;98400.41;;;-7.00;100.00
5284;BME280;15377;48.540;9.268;2024-01-11T02:15:47;98388.16;;;-6.90;100.00
5284;BME280;15377;48.540;9.268;2024-01-11T02:18:12;98412.81;;;-6.72;100.00
5284;BME280;15377;48.540;9.268;2024-01-11T02:20:37;98404.56;;;-6.91;100.00
5284;BME280;15377;48.540;9.268;2024-01-11T02:23:08;98410.44;;;-6.97;100.00
5284;BME280;15377;48.540;9.268;2024-01-11T02:25:37;98411.13;;;-7.00;100.00
5284;BME280;15377;48.540;9.268;2024-01-11T02:28:02;98405.53;;;-7.07;100.00
5284;BME280;15377;48.540;9.268;2024-01-11T02:30:28;98404.44;;;-7.18;100.00
5284;BME280;15377;48.540;9.268;2024-01-11T02:32:53;98400.06;;;-7.23;100.00
5284;BME280;15377;48.540;9.268;2024-01-11T02:35:19;98411.75;;;-7.27;100.00
5284;BME280;15377;48.540;9.268;2024-01-11T02:37:45;98415.31;;;-7.23;100.00
5284;BME280;15377;48.540;9.268;2024-01-11T02:40:13;98404.81;;;-7.28;100.00
5284;BME280;15377;48.540;9.268;2024-01-11T02:42:38;98401.28;;;-7.20;100.00
5284;BME280;15377;48.540;9.268;2024-01-11T02:45:04;98413.81;;;-7.00;100.00
5284;BME280;15377;48.540;9.268;2024-01-11T02:47:30;98396.06;;;-7.05;100.00
5284;BME280;15377;48.540;9.268;2024-01-11T02:49:55;98381.91;;;-7.17;100.00
5284;BME280;15377;48.540;9.268;2024-01-11T02:52:22;98402.44;;;-7.09;100.00
5284;BME280;15377;48.540;9.268;2024-01-11T02:54:48;98415.34;;;-7.11;100.00
5284;BME280;15377;48.540;9.268;2024-01-11T02:57:13;98400.41;;;-7.24;100.00
5284;BME280;15377;48.540;9.268;2024-01-11T02:59:40;98403.50;;;-7.22;100.00
5284;BME280;15377;48.540;9.268;2024-01-11T03:02:05;98399.03;;;-7.30;100.00
5284;BME280;15377;48.540;9.268;2024-01-11T03:04:31;98403.63;;;-7.19;100.00
5284;BME280;15377;48.540;9.268;2024-01-11T03:06:56;98400.88;;;-7.10;100.00
5284;BME280;15377;48.540;9.268;2024-01-11T03:09:21;98397.97;;;-7.05;100.00
5284;BME280;15377;48.540;9.268;2024-01-11T03:11:47;98416.94;;;-6.87;100.00
5284;BME280;15377;48.540;9.268;2024-01-11T03:14:12;98410.44;;;-6.97;100.00
5284;BME280;15377;48.540;9.268;2024-01-11T03:16:38;98395.75;;;-7.03;100.00
5284;BME280;15377;48.540;9.268;2024-01-11T03:19:05;98407.00;;;-6.86;100.00
5284;BME280;15377;48.540;9.268;2024-01-11T03:21:30;98389.50;;;-6.84;100.00
5284;BME280;15377;48.540;9.268;2024-01-11T03:23:56;98386.84;;;-6.95;100.00
5284;BME280;15377;48.540;9.268;2024-01-11T03:26:21;98402.44;;;-7.09;100.00
5284;BME280;15377;48.540;9.268;2024-01-11T03:28:47;98399.97;;;-7.02;100.00
5284;BME280;15377;48.540;9.268;2024-01-11T03:31:12;98382.69;;;-7.17;100.00
5284;BME280;15377;48.540;9.268;2024-01-11T03:33:38;98391.13;;;-7.27;100.00
5284;BME280;15377;48.540;9.268;2024-01-11T03:36:10;98388.56;;;-7.35;100.00
5284;BME280;15377;48.540;9.268;2024-01-11T03:38:36;98381.25;;;-7.14;100.00
5284;BME280;15377;48.540;9.268;2024-01-11T03:41:02;98384.25;;;-7.04;100.00
5284;BME280;15377;48.540;9.268;2024-01-11T03:43:27;98387.03;;;-7.12;100.00
5284;BME280;15377;48.540;9.268;2024-01-11T03:45:53;98384.47;;;-7.21;100.00
5284;BME280;15377;48.540;9.268;2024-01-11T03:48:18;98393.91;;;-7.35;100.00
5284;BME280;15377;48.540;9.268;2024-01-11T03:50:44;98394.22;;;-7.49;100.00
5284;BME280;15377;48.540;9.268;2024-01-11T03:53:10;98390.09;;;-7.58;100.00
5284;BME280;15377;48.540;9.268;2024-01-11T03:55:35;98366.19;;;-7.75;100.00
5284;BME280;15377;48.540;9.268;2024-01-11T03:58:01;98371.75;;;-7.80;100.00
5284;BME280;15377;48.540;9.268;2024-01-11T04:00:26;98351.97;;;-7.67;100.00
5284;BME280;15377;48.540;9.268;2024-01-11T04:02:51;98367.78;;;-7.62;100.00
5284;BME280;15377;48.540;9.268;2024-01-11T04:05:17;98361.94;;;-7.76;100.00
5284;BME280;15377;48.540;9.268;2024-01-11T04:07:42;98357.34;;;-7.55;100.00
5284;BME280;15377;48.540;9.268;2024-01-11T04:10:08;98367.41;;;-7.40;100.00
5284;BME280;15377;48.540;9.268;2024-01-11T04:12:35;98357.25;;;-7.47;100.00
5284;BME280;15377;48.540;9.268;2024-01-11T04:15:01;98366.16;;;-7.43;100.00
5284;BME280;15377;48.540;9.268;2024-01-11T04:17:27;98363.47;;;-7.55;100.00
5284;BME280;15377;48.540;9.268;2024-01-11T04:19:52;98363.75;;;-7.68;100.00
5284;BME280;15377;48.540;9.268;2024-01-11T04:22:17;98358.41;;;-7.68;100.00
5284;BME280;15377;48.540;9.268;2024-01-11T04:24:43;98369.22;;;-7.65;100.00
5284;BME280;15377;48.540;9.268;2024-01-11T04:27:08;98345.47;;;-7.90;100.00
5284;BME280;15377;48.540;9.268;2024-01-11T04:29:34;98379.88;;;-7.77;100.00
5284;BME280;15377;48.540;9.268;2024-01-11T04:31:59;98372.63;;;-7.76;100.00
5284;BME280;15377;48.540;9.268;2024-01-11T04:34:24;98371.59;;;-7.51;100.00
5284;BME280;15377;48.540;9.268;2024-01-11T04:36:50;98374.63;;;-7.41;100.00
5284;BME280;15377;48.540;9.268;2024-01-11T04:39:15;98372.09;;;-7.25;100.00
5284;BME280;15377;48.540;9.268;2024-01-11T04:41:41;98386.25;;;-7.13;100.00
5284;BME280;15377;48.540;9.268;2024-01-11T04:44:06;98379.56;;;-7.19;100.00
5284;BME280;15377;48.540;9.268;2024-01-11T04:46:32;98386.34;;;-7.33;100.00
5284;BME280;15377;48.540;9.268;2024-01-11T04:48:57;98382.19;;;-7.43;100.00
5284;BME280;15377;48.540;9.268;2024-01-11T04:51:23;98383.63;;;-7.45;100.00
5284;BME280;15377;48.540;9.268;2024-01-11T04:53:48;98375.94;;;-7.59;100.00
5284;BME280;15377;48.540;9.268;2024-01-11T04:56:15;98369.78;;;-7.71;100.00
5284;BME280;15377;48.540;9.268;2024-01-11T04:58:41;98381.34;;;-7.67;100.00
5284;BME280;15377;48.540;9.268;2024-01-11T05:01:14;98379.53;;;-7.75;100.00
5284;BME280;15377;48.540;9.268;2024-01-11T05:03:41;98369.81;;;-7.92;100.00
5284;BME280;15377;48.540;9.268;2024-01-11T05:06:06;98376.19;;;-7.84;100.00
5284;BME280;15377;48.540;9.268;2024-01-11T05:08:31;98353.06;;;-7.80;100.00
5284;BME280;15377;48.540;9.268;2024-01-11T05:10:57;98379.78;;;-7.68;100.00
5284;BME280;15377;48.540;9.268;2024-01-11T05:13:22;98363.56;;;-7.63;100.00
5284;BME280;15377;48.540;9.268;2024-01-11T05:15:47;98378.84;;;-7.52;100.00
5284;BME280;15377;48.540;9.268;2024-01-11T05:18:13;98383.38;;;-7.64;100.00
5284;BME280;15377;48.540;9.268;2024-01-11T05:20:39;98393.38;;;-7.73;100.00
5284;BME280;15377;48.540;9.268;2024-01-11T05:23:05;98375.28;;;-7.88;100.00
5284;BME280;15377;48.540;9.268;2024-01-11T05:25:30;98371.06;;;-7.89;100.00
5284;BME280;15377;48.540;9.268;2024-01-11T05:28:00;98391.31;;;-7.88;100.00
5284;BME280;15377;48.540;9.268;2024-01-11T05:30:25;98387.72;;;-7.92;100.00
5284;BME280;15377;48.540;9.268;2024-01-11T05:32:51;98392.63;;;-7.94;100.00
5284;BME280;15377;48.540;9.268;2024-01-11T05:35:16;98397.88;;;-8.06;100.00
5284;BME280;15377;48.540;9.268;2024-01-11T05:37:41;98399.00;;;-8.07;100.00
5284;BME280;15377;48.540;9.268;2024-01-11T05:40:07;98407.63;;;-8.02;100.00
5284;BME280;15377;48.540;9.268;2024-01-11T05:42:33;98403.56;;;-7.87;100.00
5284;BME280;15377;48.540;9.268;2024-01-11T05:44:58;98401.38;;;-7.73;100.00
5284;BME280;15377;48.540;9.268;2024-01-11T05:47:23;98410.78;;;-7.55;100.00
5284;BME280;15377;48.540;9.268;2024-01-11T05:49:49;98397.31;;;-7.59;100.00
5284;BME280;15377;48.540;9.268;2024-01-11T05:52:15;98413.59;;;-7.40;100.00
5284;BME280;15377;48.540;9.268;2024-01-11T05:54:40;98416.59;;;-7.53;100.00
5284;BME280;15377;48.540;9.268;2024-01-11T05:57:06;98419.88;;;-7.68;100.00
5284;BME280;15377;48.540;9.268;2024-01-11T05:59:32;98408.47;;;-7.77;100.00
5284;BME280;15377;48.540;9.268;2024-01-11T06:01:58;98427.88;;;-7.68;100.00
5284;BME280;15377;48.540;9.268;2024-01-11T06:04:25;98410.97;;;-7.72;100.00
5284;BME280;15377;48.540;9.268;2024-01-11T06:06:51;98430.84;;;-7.49;100.00
5284;BME280;15377;48.540;9.268;2024-01-11T06:09:16;98432.88;;;-7.46;100.00
5284;BME280;15377;48.540;9.268;2024-01-11T06:11:42;98421.59;;;-7.52;100.00
5284;BME280;15377;48.540;9.268;2024-01-11T06:14:07;98439.69;;;-7.69;100.00
5284;BME280;15377;48.540;9.268;2024-01-11T06:16:32;98428.28;;;-7.78;100.00
5284;BME280;15377;48.540;9.268;2024-01-11T06:18:58;98444.50;;;-7.83;100.00
5284;BME280;15377;48.540;9.268;2024-01-11T06:21:23;98435.16;;;-7.89;100.00
5284;BME280;15377;48.540;9.268;2024-01-11T06:23:48;98429.97;;;-7.74;100.00
5284;BME280;15377;48.540;9.268;2024-01-11T06:26:14;98440.50;;;-7.57;100.00
5284;BME280;15377;48.540;9.268;2024-01-11T06:28:39;98431.50;;;-7.52;100.00
5284;BME280;15377;48.540;9.268;2024-01-11T06:31:05;98444.41;;;-7.54;100.00
5284;BME280;15377;48.540;9.268;2024-01-11T06:33:30;98450.19;;;-7.64;100.00
5284;BME280;15377;48.540;9.268;2024-01-11T06:35:57;98438.41;;;-7.84;100.00
5284;BME280;15377;48.540;9.268;2024-01-11T06:38:22;98442.19;;;-7.85;100.00
5284;BME280;15377;48.540;9.268;2024-01-11T06:40:48;98448.56;;;-7.77;100.00
5284;BME280;15377;48.540;9.268;2024-01-11T06:43:14;98450.19;;;-7.64;100.00
5284;BME280;15377;48.540;9.268;2024-01-11T06:45:40;98431.88;;;-7.74;100.00
5284;BME280;15377;48.540;9.268;2024-01-11T06:48:05;98441.06;;;-7.84;100.00
5284;BME280;15377;48.540;9.268;2024-01-11T06:50:31;98442.91;;;-7.76;100.00
5284;BME280;15377;48.540;9.268;2024-01-11T06:52:56;98441.84;;;-7.83;100.00
5284;BME280;15377;48.540;9.268;2024-01-11T06:55:22;98438.16;;;-7.91;100.00
5284;BME280;15377;48.540;9.268;2024-01-11T06:57:48;98435.34;;;-7.94;100.00
5284;BME280;15377;48.540;9.268;2024-01-11T07:00:13;98461.34;;;-7.83;100.00
5284;BME280;15377;48.540;9.268;2024-01-11T07:02:39;98455.81;;;-7.98;100.00
5284;BME280;15377;48.540;9.268;2024-01-11T07:05:05;98458.81;;;-8.00;100.00
5284;BME280;15377;48.540;9.268;2024-01-11T07:07:31;98456.13;;;-8.00;100.00
5284;BME280;15377;48.540;9.268;2024-01-11T07:09:58;98442.47;;;-7.98;100.00
5284;BME280;15377;48.540;9.268;2024-01-11T07:12:23;98428.69;;;-7.88;100.00
5284;BME280;15377;48.540;9.268;2024-01-11T07:14:48;98463.78;;;-7.57;100.00
5284;BME280;15377;48.540;9.268;2024-01-11T07:17:14;98463.41;;;-7.68;100.00
5284;BME280;15377;48.540;9.268;2024-01-11T07:19:39;98482.75;;;-7.71;100.00
5284;BME280;15377;48.540;9.268;2024-01-11T07:22:04;98475.59;;;-7.79;100.00
5284;BME280;15377;48.540;9.268;2024-01-11T07:24:30;98480.44;;;-7.72;100.00
5284;BME280;15377;48.540;9.268;2024-01-11T07:27:03;98480.16;;;-7.59;100.00
5284;BME280;15377;48.540;9.268;2024-01-11T07:29:29;98474.75;;;-7.50;100.00
5284;BME280;15377;48.540;9.268;2024-01-11T07:31:54;98482.97;;;-7.43;100.00
5284;BME280;15377;48.540;9.268;2024-01-11T07:34:20;98477.72;;;-7.52;100.00
5284;BME280;15377;48.540;9.268;2024-01-11T07:36:45;98478.97;;;-7.49;100.00
5284;BME280;15377;48.540;9.268;2024-01-11T07:39:10;98501.09;;;-7.28;100.00
5284;BME280;15377;48.540;9.268;2024-01-11T07:41:36;98503.69;;;-7.20;100.00
5284;BME280;15377;48.540;9.268;2024-01-11T07:44:01;98492.56;;;-7.10;100.00
5284;BME280;15377;48.540;9.268;2024-01-11T07:46:27;98486.91;;;-6.97;100.00
5284;BME280;15377;48.540;9.268;2024-01-11T07:48:52;98494.28;;;-6.82;100.00
5284;BME280;15377;48.540;9.268;2024-01-11T07:51:17;98487.06;;;-6.69;100.00
5284;BME280;15377;48.540;9.268;2024-01-11T07:53:44;98487.53;;;-6.55;100.00
5284;BME280;15377;48.540;9.268;2024-01-11T07:56:09;98482.97;;;-6.55;100.00
5284;BME280;15377;48.540;9.268;2024-01-11T07:58:34;98492.78;;;-6.47;100.00
5284;BME280;15377;48.540;9.268;2024-01-11T08:01:03;98491.66;;;-6.46;100.00
5284;BME280;15377;48.540;9.268;2024-01-11T08:03:29;98493.22;;;-6.45;100.00
5284;BME280;15377;48.540;9.268;2024-01-11T08:05:55;98496.00;;;-6.41;100.00
5284;BME280;15377;48.540;9.268;2024-01-11T08:08:21;98513.06;;;-6.34;100.00
5284;BME280;15377;48.540;9.268;2024-01-11T08:10:47;98506.38;;;-6.28;100.00
5284;BME280;15377;48.540;9.268;2024-01-11T08:13:15;98525.09;;;-6.04;100.00
5284;BME280;15377;48.540;9.268;2024-01-11T08:15:40;98536.03;;;-5.97;100.00
5284;BME280;15377;48.540;9.268;2024-01-11T08:18:07;98541.28;;;-5.88;100.00
5284;BME280;15377;48.540;9.268;2024-01-11T08:20:32;98527.41;;;-5.78;100.00
5284;BME280;15377;48.540;9.268;2024-01-11T08:22:58;98521.91;;;-5.70;100.00
5284;BME280;15377;48.540;9.268;2024-01-11T08:25:23;98525.09;;;-5.52;100.00
5284;BME280;15377;48.540;9.268;2024-01-11T08:27:48;98540.38;;;-5.41;100.00
5284;BME280;15377;48.540;9.268;2024-01-11T08:30:14;98548.28;;;-5.32;100.00
5284;BME280;15377;48.540;9.268;2024-01-11T08:32:41;98567.91;;;-5.16;100.00
5284;BME280;15377;48.540;9.268;2024-01-11T08:35:08;98576.44;;;-4.99;100.00
5284;BME280;15377;48.540;9.268;2024-01-11T08:37:35;98577.50;;;-4.88;100.00
5284;BME280;15377;48.540;9.268;2024-01-11T08:40:00;98575.44;;;-4.79;100.00
5284;BME280;15377;48.540;9.268;2024-01-11T08:42:26;98569.22;;;-4.67;100.00
5284;BME280;15377;48.540;9.268;2024-01-11T08:44:51;98560.56;;;-4.61;100.00
5284;BME280;15377;48.540;9.268;2024-01-11T08:47:17;98563.63;;;-4.47;100.00
5284;BME280;15377;48.540;9.268;2024-01-11T08:49:43;98559.38;;;-4.48;100.00
5284;BME280;15377;48.540;9.268;2024-01-11T08:52:08;98569.13;;;-4.28;100.00
5284;BME280;15377;48.540;9.268;2024-01-11T08:54:33;98578.28;;;-4.13;100.00
5284;BME280;15377;48.540;9.268;2024-01-11T08:56:59;98569.97;;;-4.08;100.00
5284;BME280;15377;48.540;9.268;2024-01-11T08:59:24;98583.66;;;-3.98;100.00
5284;BME280;15377;48.540;9.268;2024-01-11T09:01:51;98585.13;;;-3.85;100.00
5284;BME280;15377;48.540;9.268;2024-01-11T09:04:16;98575.75;;;-3.91;100.00
5284;BME280;15377;48.540;9.268;2024-01-11T09:06:43;98578.59;;;-3.84;100.00
5284;BME280;15377;48.540;9.268;2024-01-11T09:09:08;98555.53;;;-3.85;100.00
5284;BME280;15377;48.540;9.268;2024-01-11T09:11:36;98573.00;;;-3.60;100.00
5284;BME280;15377;48.540;9.268;2024-01-11T09:14:01;98573.06;;;-3.75;100.00
5284;BME280;15377;48.540;9.268;2024-01-11T09:16:28;98541.75;;;-3.83;100.00
5284;BME280;15377;48.540;9.268;2024-01-11T09:18:54;98580.81;;;-3.55;100.00
5284;BME280;15377;48.540;9.268;2024-01-11T09:21:19;98573.56;;;-3.36;100.00
5284;BME280;15377;48.540;9.268;2024-01-11T09:23:44;98562.41;;;-3.53;100.00
5284;BME280;15377;48.540;9.268;2024-01-11T09:26:10;98562.72;;;-3.39;100.00
5284;BME280;15377;48.540;9.268;2024-01-11T09:28:35;98562.94;;;-3.29;100.00
5284;BME280;15377;48.540;9.268;2024-01-11T09:31:00;98570.78;;;-3.20;100.00
5284;BME280;15377;48.540;9.268;2024-01-11T09:33:27;98563.44;;;-3.23;100.00
5284;BME280;15377;48.540;9.268;2024-01-11T09:35:54;98556.09;;;-3.26;100.00
5284;BME280;15377;48.540;9.268;2024-01-11T09:38:21;98560.09;;;-3.17;100.00
5284;BME280;15377;48.540;9.268;2024-01-11T09:40:59;98558.78;;;-3.07;100.00
5284;BME280;15377;48.540;9.268;2024-01-11T09:43:29;98571.09;;;-3.06;100.00
5284;BME280;15377;48.540;9.268;2024-01-11T09:45:55;98559.31;;;-2.98;100.00
5284;BME280;15377;48.540;9.268;2024-01-11T09:48:22;98573.41;;;-2.86;100.00
5284;BME280;15377;48.540;9.268;2024-01-11T09:50:50;98569.09;;;-2.90;100.00
5284;BME280;15377;48.540;9.268;2024-01-11T09:53:18;98553.00;;;-2.87;100.00
5284;BME280;15377;48.540;9.268;2024-01-11T09:55:46;98559.88;;;-2.89;100.00
5284;BME280;15377;48.540;9.268;2024-01-11T09:58:12;98553.81;;;-2.86;100.00
5284;BME280;15377;48.540;9.268;2024-01-11T10:00:39;98564.06;;;-2.73;100.00
5284;BME280;15377;48.540;9.268;2024-01-11T10:03:06;98559.34;;;-2.79;100.00
5284;BME280;15377;48.540;9.268;2024-01-11T10:05:33;98577.44;;;-2.57;100.00
5284;BME280;15377;48.540;9.268;2024-01-11T10:07:59;98569.06;;;-2.52;100.00
5284;BME280;15377;48.540;9.268;2024-01-11T10:10:24;98572.69;;;-2.64;100.00
5284;BME280;15377;48.540;9.268;2024-01-11T10:12:51;98557.66;;;-2.65;100.00
5284;BME280;15377;48.540;9.268;2024-01-11T10:15:16;98567.84;;;-2.55;100.00
5284;BME280;15377;48.540;9.268;2024-01-11T10:17:42;98559.69;;;-2.58;100.00
5284;BME280;15377;48.540;9.268;2024-01-11T10:20:12;98541.19;;;-2.60;100.00
5284;BME280;15377;48.540;9.268;2024-01-11T10:22:42;98571.16;;;-2.42;100.00
5284;BME280;15377;48.540;9.268;2024-01-11T10:25:15;98571.28;;;-2.58;100.00
5284;BME280;15377;48.540;9.268;2024-01-11T10:27:42;98571.34;;;-2.54;100.00
5284;BME280;15377;48.540;9.268;2024-01-11T10:30:09;98560.06;;;-2.60;100.00
5284;BME280;15377;48.540;9.268;2024-01-11T10:32:35;98557.19;;;-2.70;100.00
5284;BME280;15377;48.540;9.268;2024-01-11T10:35:03;98559.75;;;-2.77;100.00
5284;BME280;15377;48.540;9.268;2024-01-11T10:37:31;98568.38;;;-2.68;100.00
5284;BME280;15377;48.540;9.268;2024-01-11T10:39:58;98550.47;;;-2.57;100.00
5284;BME280;15377;48.540;9.268;2024-01-11T10:42:27;98521.84;;;-2.65;100.00
5284;BME280;15377;48.540;9.268;2024-01-11T10:44:55;98542.31;;;-2.42;100.00
5284;BME280;15377;48.540;9.268;2024-01-11T10:47:24;98533.13;;;-2.37;100.00
5284;BME280;15377;48.540;9.268;2024-01-11T10:49:50;98553.59;;;-2.10;100.00
5284;BME280;15377;48.540;9.268;2024-01-11T10:52:19;98555.38;;;-1.95;100.00
5284;BME280;15377;48.540;9.268;2024-01-11T10:54:48;98544.75;;;-1.85;100.00
5284;BME280;15377;48.540;9.268;2024-01-11T10:57:15;98535.59;;;-1.80;100.00
5284;BME280;15377;48.540;9.268;2024-01-11T10:59:41;98543.59;;;-1.58;100.00
5284;BME280;15377;48.540;9.268;2024-01-11T11:02:09;98543.66;;;-1.54;100.00
5284;BME280;15377;48.540;9.268;2024-01-11T11:04:38;98543.47;;;-1.68;100.00
5284;BME280;15377;48.540;9.268;2024-01-11T11:07:05;98550.53;;;-1.60;100.00
5284;BME280;15377;48.540;9.268;2024-01-11T11:09:34;98549.09;;;-1.51;100.00
5284;BME280;15377;48.540;9.268;2024-01-11T11:12:00;98546.59;;;-1.66;100.00
5284;BME280;15377;48.540;9.268;2024-01-11T11:14:28;98551.53;;;-1.72;100.00
5284;BME280;15377;48.540;9.268;2024-01-11T11:16:54;98544.44;;;-1.54;100.00
5284;BME280;15377;48.540;9.268;2024-01-11T11:19:20;98543.22;;;-1.30;100.00
5284;BME280;15377;48.540;9.268;2024-01-11T11:21:47;98536.25;;;-1.31;100.00
5284;BME280;15377;48.540;9.268;2024-01-11T11:24:14;98547.75;;;-1.38;100.00
5284;BME280;15377;48.540;9.268;2024-01-11T11:26:42;98563.34;;;-1.24;100.00
5284;BME280;15377;48.540;9.268;2024-01-11T11:29:08;98566.28;;;-1.36;100.00
5284;BME280;15377;48.540;9.268;2024-01-11T11:31:44;98551.25;;;-1.37;100.00
5284;BME280;15377;48.540;9.268;2024-01-11T11:34:19;98553.75;;;-1.51;100.00
5284;BME280;15377;48.540;9.268;2024-01-11T11:36:46;98567.84;;;-1.61;100.00
5284;BME280;15377;48.540;9.268;2024-01-11T11:39:11;98562.88;;;-1.59;100.00
5284;BME280;15377;48.540;9.268;2024-01-11T11:41:39;98567.44;;;-1.63;100.00
5284;BME280;15377;48.540;9.268;2024-01-11T11:44:05;98549.28;;;-1.66;100.00
5284;BME280;15377;48.540;9.268;2024-01-11T11:46:31;98547.28;;;-1.69;100.00
5284;BME280;15377;48.540;9.268;2024-01-11T11:48:57;98550.31;;;-1.74;100.00
5284;BME280;15377;48.540;9.268;2024-01-11T11:51:23;98534.09;;;-1.78;100.00
5284;BME280;15377;48.540;9.268;2024-01-11T11:53:50;98555.78;;;-1.71;100.00
5284;BME280;15377;48.540;9.268;2024-01-11T11:56:17;98558.25;;;-1.59;100.00
5284;BME280;15377;48.540;9.268;2024-01-11T11:58:44;98566.78;;;-1.57;100.00
5284;BME280;15377;48.540;9.268;2024-01-11T12:01:10;98554.03;;;-1.56;100.00
5284;BME280;15377;48.540;9.268;2024-01-11T12:03:40;98536.59;;;-1.62;100.00
5284;BME280;15377;48.540;9.268;2024-01-11T12:06:10;98520.41;;;-1.62;100.00
5284;BME280;15377;48.540;9.268;2024-01-11T12:08:36;98506.38;;;-1.75;100.00
5284;BME280;15377;48.540;9.268;2024-01-11T12:11:03;98500.91;;;-1.78;100.00
5284;BME280;15377;48.540;9.268;2024-01-11T12:13:29;98487.75;;;-1.83;100.00
5284;BME280;15377;48.540;9.268;2024-01-11T12:15:56;98500.63;;;-1.73;100.00
5284;BME280;15377;48.540;9.268;2024-01-11T12:18:22;98504.91;;;-1.69;100.00
5284;BME280;15377;48.540;9.268;2024-01-11T12:20:47;98503.56;;;-1.82;100.00
5284;BME280;15377;48.540;9.268;2024-01-11T12:23:13;98490.75;;;-1.88;100.00
5284;BME280;15377;48.540;9.268;2024-01-11T12:25:41;98481.56;;;-1.84;100.00
5284;BME280;15377;48.540;9.268;2024-01-11T12:28:07;98466.06;;;-1.90;100.00
5284;BME280;15377;48.540;9.268;2024-01-11T12:30:32;98476.13;;;-1.87;100.00
5284;BME280;15377;48.540;9.268;2024-01-11T12:32:58;98460.59;;;-1.97;100.00
5284;BME280;15377;48.540;9.268;2024-01-11T12:35:26;98463.75;;;-1.92;100.00
5284;BME280;15377;48.540;9.268;2024-01-11T12:38:00;98479.66;;;-1.83;100.00
5284;BME280;15377;48.540;9.268;2024-01-11T12:40:31;98487.88;;;-1.76;100.00
5284;BME280;15377;48.540;9.268;2024-01-11T12:42:57;98467.84;;;-1.75;100.00
5284;BME280;15377;48.540;9.268;2024-01-11T12:45:24;98471.75;;;-1.69;100.00
5284;BME280;15377;48.540;9.268;2024-01-11T12:47:51;98481.81;;;-1.66;100.00
5284;BME280;15377;48.540;9.268;2024-01-11T12:50:17;98472.47;;;-1.72;100.00
5284;BME280;15377;48.540;9.268;2024-01-11T12:52:43;98475.59;;;-1.70;100.00
5284;BME280;15377;48.540;9.268;2024-01-11T12:55:18;98476.09;;;-1.61;100.00